createdAt,value
2023-05-14T00:00:40.712Z,12.54
2023-05-14T00:03:34.444Z,12.56
2023-05-14T00:06:13.908Z,12.53
2023-05-14T00:08:53.213Z,12.43
2023-05-14T00:11:32.324Z,12.47
2023-05-14T00:14:07.023Z,12.43
2023-05-14T00:16:43.454Z,12.41
2023-05-14T00:19:20.920Z,12.37
2023-05-14T00:21:59.979Z,12.32
2023-05-14T00:24:38.747Z,12.27
2023-05-14T00:27:20.825Z,12.26
2023-05-14T00:30:00.007Z,12.24
2023-05-14T00:32:39.029Z,12.24
2023-05-14T00:35:18.874Z,12.22
2023-05-14T00:37:49.155Z,12.18
2023-05-14T00:40:23.467Z,12.14
2023-05-14T00:42:56.812Z,12.08
2023-05-14T00:45:34.903Z,12.07
2023-05-14T00:48:07.607Z,12.07
2023-05-14T00:50:47.514Z,12.08
2023-05-14T00:53:26.693Z,12.07
2023-05-14T00:56:06.057Z,12.07
2023-05-14T00:58:45.302Z,12.06
2023-05-14T01:01:24.897Z,12.01
2023-05-14T01:04:04.356Z,11.97
2023-05-14T01:07:20.490Z,11.96
2023-05-14T01:10:15.790Z,11.92
2023-05-14T01:13:01.005Z,11.84
2023-05-14T01:15:38.591Z,11.75
2023-05-14T01:18:20.791Z,11.69
2023-05-14T01:20:56.251Z,11.64
2023-05-14T01:23:35.558Z,11.60
2023-05-14T01:26:15.053Z,11.54
2023-05-14T01:28:56.094Z,11.46
2023-05-14T01:31:38.595Z,11.41
2023-05-14T01:34:19.848Z,11.38
2023-05-14T01:37:00.760Z,11.39
2023-05-14T01:39:40.036Z,11.39
2023-05-14T01:42:19.313Z,11.37
2023-05-14T01:44:58.873Z,11.26
2023-05-14T01:47:38.175Z,11.32
2023-05-14T01:50:17.228Z,11.21
2023-05-14T01:52:57.040Z,11.14
2023-05-14T01:55:36.807Z,11.11
2023-05-14T01:58:16.351Z,11.07
2023-05-14T02:00:46.258Z,11.02
2023-05-14T02:03:26.286Z,11.01
2023-05-14T02:05:56.610Z,11.00
2023-05-14T02:08:35.862Z,10.99
2023-05-14T02:11:10.289Z,10.96
2023-05-14T02:13:41.074Z,10.94
2023-05-14T02:16:20.759Z,10.89
2023-05-14T02:19:00.217Z,10.84
2023-05-14T02:21:34.628Z,10.79
2023-05-14T02:24:14.788Z,10.87
2023-05-14T02:26:54.486Z,10.93
2023-05-14T02:29:33.192Z,10.92
2023-05-14T02:32:11.072Z,10.86
2023-05-14T02:34:50.592Z,10.79
2023-05-14T02:37:29.636Z,10.73
2023-05-14T02:39:59.977Z,10.65
2023-05-14T02:42:39.236Z,10.57
2023-05-14T02:45:18.774Z,10.55
2023-05-14T02:47:59.299Z,10.53
2023-05-14T02:50:38.663Z,10.54
2023-05-14T02:53:17.546Z,10.56
2023-05-14T02:55:56.315Z,10.54
2023-05-14T02:58:36.029Z,10.53
2023-05-14T03:01:10.721Z,10.54
2023-05-14T03:03:42.320Z,10.55
2023-05-14T03:06:21.591Z,10.55
2023-05-14T03:09:00.896Z,10.55
2023-05-14T03:11:40.188Z,10.57
2023-05-14T03:14:19.021Z,10.58
2023-05-14T03:16:58.767Z,10.60
2023-05-14T03:19:39.255Z,10.63
2023-05-14T03:22:18.733Z,10.60
2023-05-14T03:24:58.564Z,10.54
2023-05-14T03:27:38.517Z,10.51
2023-05-14T03:30:19.121Z,10.48
2023-05-14T03:32:58.126Z,10.57
2023-05-14T03:35:36.994Z,10.58
2023-05-14T03:38:15.879Z,10.64
2023-05-14T03:40:55.710Z,10.71
2023-05-14T03:43:35.411Z,10.78
2023-05-14T03:46:14.698Z,10.81
2023-05-14T03:48:53.467Z,10.87
2023-05-14T03:51:32.789Z,10.86
2023-05-14T03:54:14.554Z,10.93
2023-05-14T03:56:53.442Z,10.94
2023-05-14T03:59:33.363Z,10.92
2023-05-14T04:02:13.588Z,10.91
2023-05-14T04:04:52.482Z,10.94
2023-05-14T04:07:30.763Z,11.02
2023-05-14T04:10:11.505Z,11.09
2023-05-14T04:12:49.560Z,11.17
2023-05-14T04:15:29.718Z,11.24
2023-05-14T04:18:09.028Z,11.22
2023-05-14T04:20:47.338Z,11.15
2023-05-14T04:23:26.462Z,11.15
2023-05-14T04:26:05.729Z,11.26
2023-05-14T04:28:44.043Z,11.43
2023-05-14T04:31:24.348Z,11.60
2023-05-14T04:34:03.561Z,11.69
2023-05-14T04:36:41.922Z,11.81
2023-05-14T04:39:22.685Z,11.91
2023-05-14T04:42:01.514Z,12.05
2023-05-14T04:44:40.594Z,12.15
2023-05-14T04:47:18.548Z,12.28
2023-05-14T04:49:53.247Z,12.45
2023-05-14T04:52:26.166Z,12.65
2023-05-14T04:55:05.200Z,12.88
2023-05-14T04:57:43.530Z,13.15
2023-05-14T05:00:23.767Z,13.58
2023-05-14T05:03:03.032Z,13.81
2023-05-14T05:05:41.788Z,14.18
2023-05-14T05:08:20.411Z,15.30
2023-05-14T05:10:59.173Z,16.79
2023-05-14T05:13:37.850Z,17.93
2023-05-14T05:16:17.081Z,19.01
2023-05-14T05:18:57.015Z,19.72
2023-05-14T05:21:36.571Z,20.50
2023-05-14T05:24:15.469Z,20.50
2023-05-14T05:26:56.074Z,21.56
2023-05-14T05:29:34.931Z,22.20
2023-05-14T05:32:16.581Z,22.27
2023-05-14T05:34:55.176Z,22.51
2023-05-14T05:37:35.550Z,22.99
2023-05-14T05:40:16.015Z,22.78
2023-05-14T05:42:54.872Z,22.86
2023-05-14T05:45:33.125Z,22.97
2023-05-14T05:48:13.328Z,23.81
2023-05-14T05:50:52.231Z,24.37
2023-05-14T05:53:30.289Z,24.29
2023-05-14T05:56:09.799Z,23.81
2023-05-14T05:58:49.654Z,23.32
2023-05-14T06:01:29.527Z,23.53
2023-05-14T06:04:07.854Z,24.05
2023-05-14T06:06:46.048Z,24.12
2023-05-14T06:09:24.287Z,23.78
2023-05-14T06:12:02.162Z,23.17
2023-05-14T06:14:40.649Z,23.06
2023-05-14T06:17:10.518Z,23.57
2023-05-14T06:19:47.757Z,24.03
2023-05-14T06:22:26.086Z,24.62
2023-05-14T06:25:04.093Z,25.06
2023-05-14T06:27:42.314Z,24.85
2023-05-14T06:30:22.091Z,24.92
2023-05-14T06:33:00.938Z,24.86
2023-05-14T06:35:39.559Z,25.00
2023-05-14T06:38:19.152Z,25.02
2023-05-14T06:40:57.944Z,25.21
2023-05-14T06:43:37.391Z,25.42
2023-05-14T06:46:16.715Z,25.47
2023-05-14T06:48:57.990Z,25.76
2023-05-14T06:51:41.118Z,25.92
2023-05-14T06:54:20.752Z,25.82
2023-05-14T06:56:59.094Z,26.15
2023-05-14T06:59:37.485Z,26.21
2023-05-14T07:02:16.576Z,26.38
2023-05-14T07:04:56.259Z,26.36
2023-05-14T07:07:35.453Z,26.44
2023-05-14T07:10:15.350Z,26.11
2023-05-14T07:12:54.195Z,26.02
2023-05-14T07:15:33.597Z,26.23
2023-05-14T07:18:13.583Z,26.46
2023-05-14T07:20:52.329Z,26.41
2023-05-14T07:23:31.537Z,26.33
2023-05-14T07:26:08.836Z,26.11
2023-05-14T07:28:47.289Z,26.49
2023-05-14T07:31:26.113Z,26.73
2023-05-14T07:34:05.051Z,26.64
2023-05-14T07:36:44.632Z,26.89
2023-05-14T07:39:23.801Z,26.82
2023-05-14T07:41:57.913Z,26.32
2023-05-14T07:44:31.030Z,26.60
2023-05-14T07:47:13.262Z,26.41
2023-05-14T07:49:56.700Z,26.65
2023-05-14T07:52:31.042Z,26.57
2023-05-14T07:55:11.013Z,26.70
2023-05-14T07:57:50.410Z,26.71
2023-05-14T08:00:29.198Z,26.94
2023-05-14T08:03:09.316Z,26.84
2023-05-14T08:05:45.290Z,26.62
2023-05-14T08:08:25.882Z,27.03
2023-05-14T08:11:04.272Z,27.48
2023-05-14T08:13:43.393Z,27.60
2023-05-14T08:16:22.676Z,27.55
2023-05-14T08:19:01.772Z,27.68
2023-05-14T08:21:40.662Z,27.44
2023-05-14T08:24:20.530Z,27.23
2023-05-14T08:26:59.823Z,27.50
2023-05-14T08:29:39.256Z,27.34
2023-05-14T08:32:23.449Z,26.66
2023-05-14T08:35:01.314Z,26.83
2023-05-14T08:37:50.045Z,26.79
2023-05-14T08:40:30.746Z,26.94
2023-05-14T08:43:12.158Z,26.88
2023-05-14T08:45:58.715Z,27.13
2023-05-14T08:48:35.074Z,27.14
2023-05-14T08:51:09.243Z,27.06
2023-05-14T08:53:56.304Z,27.03
2023-05-14T08:56:33.850Z,27.01
2023-05-14T08:59:08.909Z,27.19
2023-05-14T09:01:54.527Z,27.34
2023-05-14T09:04:35.277Z,27.20
2023-05-14T09:07:12.805Z,27.09
2023-05-14T09:09:51.811Z,27.29
2023-05-14T09:12:30.156Z,27.36
2023-05-14T09:15:10.679Z,27.40
2023-05-14T09:17:50.141Z,27.86
2023-05-14T09:20:30.007Z,27.51
2023-05-14T09:23:00.673Z,27.27
2023-05-14T09:25:40.562Z,27.35
2023-05-14T09:28:20.674Z,27.17
2023-05-14T09:31:03.986Z,26.95
2023-05-14T09:33:42.774Z,27.16
2023-05-14T09:36:22.035Z,27.22
2023-05-14T09:39:05.053Z,27.34
2023-05-14T09:41:46.862Z,27.31
2023-05-14T09:44:25.771Z,27.09
2023-05-14T09:47:04.959Z,26.95
2023-05-14T09:49:44.502Z,26.91
2023-05-14T09:52:25.522Z,26.94
2023-05-14T09:55:04.656Z,26.94
2023-05-14T09:57:43.965Z,26.57
2023-05-14T10:00:24.051Z,26.41
2023-05-14T10:03:07.285Z,26.61
2023-05-14T10:05:46.818Z,26.79
2023-05-14T10:08:44.558Z,26.42
2023-05-14T10:11:32.999Z,26.37
2023-05-14T10:14:31.097Z,26.41
2023-05-14T10:17:20.852Z,26.20
2023-05-14T10:20:00.811Z,26.22
2023-05-14T10:22:36.042Z,26.27
2023-05-14T10:25:15.557Z,26.18
2023-05-14T10:27:55.187Z,26.26
2023-05-14T10:30:34.021Z,26.02
2023-05-14T10:33:19.722Z,25.76
2023-05-14T10:36:02.939Z,25.58
2023-05-14T10:38:38.686Z,25.15
2023-05-14T10:41:18.246Z,25.07
2023-05-14T10:43:57.867Z,25.11
2023-05-14T10:46:36.383Z,25.12
2023-05-14T10:49:20.985Z,25.10
2023-05-14T10:51:57.694Z,24.94
2023-05-14T10:54:37.376Z,24.96
2023-05-14T10:57:18.334Z,25.06
2023-05-14T10:59:57.624Z,25.07
2023-05-14T11:02:39.786Z,25.11
2023-05-14T11:05:18.010Z,25.00
2023-05-14T11:07:57.506Z,24.71
2023-05-14T11:10:37.428Z,24.48
2023-05-14T11:13:20.395Z,24.49
2023-05-14T11:16:02.272Z,24.60
2023-05-14T11:18:50.224Z,24.65
2023-05-14T11:21:21.773Z,24.95
2023-05-14T11:23:57.897Z,24.91
2023-05-14T11:26:37.909Z,24.85
2023-05-14T11:29:17.834Z,24.96
2023-05-14T11:31:56.481Z,24.96
2023-05-14T11:34:36.920Z,24.80
2023-05-14T11:37:16.752Z,24.81
2023-05-14T11:40:03.783Z,24.98
2023-05-14T11:42:39.876Z,25.10
2023-05-14T11:45:33.985Z,25.07
2023-05-14T11:48:24.546Z,24.97
2023-05-14T11:51:06.965Z,24.92
2023-05-14T11:53:46.812Z,24.99
2023-05-14T11:56:26.684Z,25.01
2023-05-14T11:59:04.024Z,24.95
2023-05-14T12:01:49.497Z,25.02
2023-05-14T12:04:31.703Z,24.93
2023-05-14T12:07:15.846Z,24.85
2023-05-14T12:09:55.082Z,24.94
2023-05-14T12:12:39.129Z,25.04
2023-05-14T12:15:22.534Z,25.09
2023-05-14T12:18:00.403Z,25.06
2023-05-14T12:20:39.546Z,24.99
2023-05-14T12:23:18.045Z,24.89
2023-05-14T12:26:09.503Z,24.82
2023-05-14T12:28:45.080Z,24.72
2023-05-14T12:31:32.874Z,24.86
2023-05-14T12:34:11.209Z,24.88
2023-05-14T12:36:42.416Z,24.77
2023-05-14T12:39:20.426Z,24.78
2023-05-14T12:41:59.011Z,24.96
2023-05-14T12:44:37.866Z,24.85
2023-05-14T12:47:17.919Z,24.76
2023-05-14T12:49:56.924Z,24.67
2023-05-14T12:55:22.357Z,24.43
2023-05-14T12:58:00.806Z,24.32
2023-05-14T13:00:40.111Z,24.39
2023-05-14T13:03:19.633Z,24.39
2023-05-14T13:05:55.454Z,24.31
2023-05-14T13:08:34.471Z,24.17
2023-05-14T13:11:11.677Z,23.97
2023-05-14T13:13:51.060Z,23.83
2023-05-14T13:16:32.269Z,23.75
2023-05-14T13:19:10.463Z,23.73
2023-05-14T13:21:49.489Z,23.85
2023-05-14T13:24:28.835Z,23.90
2023-05-14T13:27:06.668Z,23.95
2023-05-14T13:29:46.258Z,23.86
2023-05-14T13:32:24.528Z,23.84
2023-05-14T13:35:03.726Z,23.82
2023-05-14T13:37:35.429Z,23.83
2023-05-14T13:40:10.320Z,23.71
2023-05-14T13:42:43.866Z,23.60
2023-05-14T13:45:22.676Z,23.56
2023-05-14T13:48:01.576Z,23.59
2023-05-14T13:50:39.415Z,23.66
2023-05-14T13:53:18.484Z,24.00
2023-05-14T13:56:02.024Z,24.27
2023-05-14T13:58:40.194Z,24.54
2023-05-14T14:01:18.578Z,24.75
2023-05-14T14:03:57.668Z,24.81
2023-05-14T14:06:36.956Z,24.77
2023-05-14T14:09:15.497Z,24.85
2023-05-14T14:11:53.872Z,24.81
2023-05-14T14:14:32.375Z,24.78
2023-05-14T14:17:04.470Z,24.85
2023-05-14T14:19:37.925Z,24.99
2023-05-14T14:22:18.085Z,25.02
2023-05-14T14:24:55.218Z,25.05
2023-05-14T14:27:26.275Z,25.04
2023-05-14T14:30:03.326Z,25.01
2023-05-14T14:32:41.303Z,24.96
2023-05-14T14:35:20.513Z,24.94
2023-05-14T14:37:58.595Z,24.91
2023-05-14T14:40:38.141Z,24.89
2023-05-14T14:43:17.632Z,24.83
2023-05-14T14:45:56.461Z,24.88
2023-05-14T14:48:38.939Z,24.94
2023-05-14T14:51:17.497Z,24.91
2023-05-14T14:53:56.123Z,24.91
2023-05-14T14:56:34.573Z,24.86
2023-05-14T14:59:05.810Z,24.86
2023-05-14T15:01:45.412Z,24.84
2023-05-14T15:04:23.889Z,24.90
2023-05-14T15:07:02.816Z,24.88
2023-05-14T15:09:41.605Z,25.02
2023-05-14T15:12:21.113Z,24.98
2023-05-14T15:14:58.532Z,24.89
2023-05-14T15:17:29.996Z,24.84
2023-05-14T15:20:07.656Z,24.75
2023-05-14T15:22:45.245Z,24.48
2023-05-14T15:25:25.312Z,24.44
2023-05-14T15:28:04.394Z,24.35
2023-05-14T15:30:43.526Z,24.39
2023-05-14T15:33:24.018Z,24.39
2023-05-14T15:35:58.112Z,24.36
2023-05-14T15:38:38.110Z,24.21
2023-05-14T15:41:17.272Z,24.15
2023-05-14T15:43:57.410Z,24.05
2023-05-14T15:46:38.194Z,23.98
2023-05-14T15:49:17.843Z,23.86
2023-05-14T15:51:57.374Z,23.82
2023-05-14T15:54:37.120Z,23.69
2023-05-14T15:57:17.884Z,23.58
2023-05-14T16:00:01.386Z,23.54
2023-05-14T16:02:40.470Z,23.36
2023-05-14T16:05:20.358Z,23.36
2023-05-14T16:07:58.523Z,23.32
2023-05-14T16:10:30.528Z,23.28
2023-05-14T16:13:03.229Z,23.20
2023-05-14T16:15:42.188Z,23.17
2023-05-14T16:18:22.545Z,23.11
2023-05-14T16:21:02.309Z,23.16
2023-05-14T16:23:41.177Z,23.26
2023-05-14T16:26:19.639Z,23.30
2023-05-14T16:28:51.933Z,23.29
2023-05-14T16:31:25.785Z,23.29
2023-05-14T16:34:06.647Z,23.31
2023-05-14T16:36:45.953Z,23.38
2023-05-14T16:39:25.101Z,23.32
2023-05-14T16:42:03.192Z,23.30
2023-05-14T16:44:41.525Z,23.27
2023-05-14T16:47:20.292Z,23.20
2023-05-14T16:49:56.749Z,23.18
2023-05-14T16:52:34.775Z,23.08
2023-05-14T16:55:13.603Z,23.04
2023-05-14T16:57:51.601Z,22.99
2023-05-14T17:00:29.923Z,22.95
2023-05-14T17:03:00.372Z,22.88
2023-05-14T17:05:30.666Z,22.82
2023-05-14T17:08:08.232Z,22.74
2023-05-14T17:10:46.580Z,22.67
2023-05-14T17:13:18.584Z,22.61
2023-05-14T17:16:22.453Z,22.56
2023-05-14T17:19:04.007Z,22.51
2023-05-14T17:21:42.560Z,22.48
2023-05-14T17:24:12.664Z,22.44
2023-05-14T17:26:48.975Z,22.38
2023-05-14T17:29:28.059Z,22.31
2023-05-14T17:32:06.183Z,22.25
2023-05-14T17:34:44.780Z,22.21
2023-05-14T17:37:23.081Z,22.19
2023-05-14T17:40:01.532Z,22.16
2023-05-14T17:42:39.632Z,22.11
2023-05-14T17:45:21.588Z,22.03
2023-05-14T17:48:02.206Z,21.96
2023-05-14T17:50:39.534Z,21.82
2023-05-14T17:53:17.503Z,21.80
2023-05-14T17:55:55.820Z,21.77
2023-05-14T17:58:34.043Z,21.72
2023-05-14T18:01:06.452Z,21.67
2023-05-14T18:03:44.788Z,21.61
2023-05-14T18:06:15.860Z,21.56
2023-05-14T18:08:47.739Z,21.50
2023-05-14T18:11:26.811Z,21.46
2023-05-14T18:14:05.766Z,21.43
2023-05-14T18:16:45.376Z,21.38
2023-05-14T18:19:24.015Z,21.33
2023-05-14T18:22:04.387Z,21.28
2023-05-14T18:24:36.475Z,21.23
2023-05-14T18:27:15.024Z,21.17
2023-05-14T18:29:53.562Z,21.12
2023-05-14T18:32:32.226Z,21.06
2023-05-14T18:35:10.234Z,20.99
2023-05-14T18:37:48.081Z,20.95
2023-05-14T18:40:28.369Z,20.88
2023-05-14T18:43:07.222Z,20.82
2023-05-14T18:45:49.267Z,20.74
2023-05-14T18:48:27.225Z,20.67
2023-05-14T18:50:59.001Z,20.59
2023-05-14T18:53:29.701Z,20.51
2023-05-14T18:56:08.446Z,20.45
2023-05-14T18:58:46.749Z,20.38
2023-05-14T19:01:25.951Z,20.31
2023-05-14T19:03:56.588Z,20.25
2023-05-14T19:06:35.402Z,20.18
2023-05-14T19:09:16.036Z,20.12
2023-05-14T19:11:54.278Z,20.05
2023-05-14T19:14:32.399Z,19.97
2023-05-14T19:17:08.861Z,19.89
2023-05-14T19:19:47.029Z,19.82
2023-05-14T19:22:19.275Z,19.75
2023-05-14T19:24:52.839Z,19.68
2023-05-14T19:27:31.470Z,19.61
2023-05-14T19:30:10.843Z,19.56
2023-05-14T19:32:50.402Z,19.49
2023-05-14T19:35:29.137Z,19.44
2023-05-14T19:38:11.580Z,19.38
2023-05-14T19:40:51.712Z,19.32
2023-05-14T19:43:30.569Z,19.25
2023-05-14T19:46:10.672Z,19.20
2023-05-14T19:48:48.855Z,19.16
2023-05-14T19:51:26.803Z,19.11
2023-05-14T19:54:06.268Z,19.05
2023-05-14T19:56:44.315Z,18.99
2023-05-14T19:59:18.673Z,18.95
2023-05-14T20:01:55.043Z,18.90
2023-05-14T20:04:34.145Z,18.83
2023-05-14T20:07:05.918Z,18.77
2023-05-14T20:09:36.279Z,18.71
2023-05-14T20:12:14.626Z,18.66
2023-05-14T20:14:52.975Z,18.60
2023-05-14T20:17:31.362Z,18.54
2023-05-14T20:20:10.284Z,18.48
2023-05-14T20:22:48.319Z,18.42
2023-05-14T20:25:28.357Z,18.36
2023-05-14T20:28:10.365Z,18.31
2023-05-14T20:30:49.005Z,18.27
2023-05-14T20:33:29.414Z,18.24
2023-05-14T20:36:10.197Z,18.19
2023-05-14T20:38:48.707Z,18.15
2023-05-14T20:41:27.186Z,18.08
2023-05-14T20:44:05.029Z,18.09
2023-05-14T20:46:43.183Z,18.05
2023-05-14T20:49:13.290Z,17.95
2023-05-14T20:51:44.685Z,17.97
2023-05-14T20:54:15.953Z,17.92
2023-05-14T20:56:55.438Z,17.87
2023-05-14T20:59:33.465Z,17.81
2023-05-14T21:02:14.304Z,17.77
2023-05-14T21:04:52.738Z,17.73
2023-05-14T21:07:30.878Z,17.72
2023-05-14T21:10:10.077Z,17.69
2023-05-14T21:12:48.325Z,17.67
2023-05-14T21:15:27.708Z,17.63
2023-05-14T21:18:06.299Z,17.61
2023-05-14T21:20:44.474Z,17.55
2023-05-14T21:23:24.509Z,17.44
2023-05-14T21:26:02.860Z,17.44
2023-05-14T21:28:40.615Z,17.40
2023-05-14T21:31:18.902Z,17.39
2023-05-14T21:33:54.101Z,17.35
2023-05-14T21:36:32.419Z,17.31
2023-05-14T21:39:11.535Z,17.30
2023-05-14T21:41:49.395Z,17.28
2023-05-14T21:44:20.302Z,17.27
2023-05-14T21:46:57.665Z,17.26
2023-05-14T21:49:36.368Z,17.27
2023-05-14T21:52:14.842Z,17.27
2023-05-14T21:54:56.776Z,17.26
2023-05-14T21:57:34.705Z,17.27
2023-05-14T22:00:11.610Z,17.27
2023-05-14T22:02:52.114Z,17.27
2023-05-14T22:05:31.106Z,17.26
2023-05-14T22:08:08.264Z,17.26
2023-05-14T22:10:43.555Z,17.25
2023-05-14T22:13:21.459Z,17.14
2023-05-14T22:16:09.258Z,17.22
2023-05-14T22:18:54.338Z,17.16
2023-05-14T22:21:35.031Z,17.15
2023-05-14T22:24:13.922Z,17.15
2023-05-14T22:26:52.244Z,17.14
2023-05-14T22:29:30.452Z,17.13
2023-05-14T22:32:08.863Z,17.12
2023-05-14T22:34:47.513Z,17.11
2023-05-14T22:37:25.757Z,17.08
2023-05-14T22:40:05.476Z,17.10
2023-05-14T22:42:44.024Z,17.10
2023-05-14T22:45:22.241Z,17.09
2023-05-14T22:47:59.951Z,17.03
2023-05-14T22:50:38.996Z,17.08
2023-05-14T22:53:16.472Z,17.08
2023-05-14T22:55:54.017Z,17.08
2023-05-14T22:58:31.536Z,17.07
2023-05-14T23:01:10.604Z,17.10
2023-05-14T23:03:48.249Z,17.12
2023-05-14T23:06:27.305Z,17.13
2023-05-14T23:09:05.289Z,17.16
2023-05-14T23:11:35.220Z,17.21
2023-05-14T23:14:05.109Z,17.23
2023-05-14T23:16:42.641Z,17.22
2023-05-14T23:19:20.563Z,17.22
2023-05-14T23:21:58.536Z,17.25
2023-05-14T23:24:36.032Z,17.26
2023-05-14T23:27:15.754Z,17.23
2023-05-14T23:29:53.307Z,17.18
2023-05-14T23:32:31.192Z,17.16
2023-05-14T23:35:10.063Z,17.17
2023-05-14T23:37:51.146Z,17.17
2023-05-14T23:40:27.795Z,17.19
2023-05-14T23:43:05.719Z,17.22
2023-05-14T23:45:43.769Z,17.24
2023-05-14T23:48:14.835Z,17.24
2023-05-14T23:50:51.099Z,17.23
2023-05-14T23:53:28.932Z,17.23
2023-05-14T23:55:58.817Z,17.24
2023-05-14T23:58:36.515Z,17.25
